Keauhou, Hawaii
Current Conditions -  °F | °C
As of 1:53 PM on Wednesday 22 Oct 2014 (Local Time) from PHKO Reporting Station
Clear Clear  
Wind Chill: 86°   Ceiling: Unl
Heat Index: 92°   Visibility: 10mi
Dew Point: 72°   Wind: 12mph
Humidity: 63%   Direction: 300°WNW
Pressure: 29.94"   Gusts: NA
Location:  19.56°N, 155.96°W
Report Text: PHKO 222353Z 30010KT 10SM CLR 30/22 A2994 RMK AO2 SLP140 T03000222 10306 20267 56022
Loading
Personal Weather Stations






























Interactive Weather Map
Tropical Storm Tracking
New forecast layout! Learn more

10-Day Weather Forecast

Advertisements
Track Severe Weather on mobile